createdAt,value
2022-10-04T00:01:09.078Z,3.20
2022-10-04T00:03:42.055Z,3.33
2022-10-04T00:06:17.164Z,3.33
2022-10-04T00:08:52.057Z,3.34
2022-10-04T00:11:23.902Z,3.37
2022-10-04T00:13:55.173Z,3.41
2022-10-04T00:16:27.961Z,3.50
2022-10-04T00:19:24.955Z,3.58
2022-10-04T00:22:17.351Z,3.56
2022-10-04T00:25:22.325Z,3.49
2022-10-04T00:28:29.725Z,3.33
2022-10-04T00:31:20.002Z,3.28
2022-10-04T00:33:49.649Z,3.27
2022-10-04T00:36:39.805Z,3.20
2022-10-04T00:39:27.267Z,3.06
2022-10-04T00:42:19.378Z,2.98
2022-10-04T00:44:52.781Z,2.98
2022-10-04T00:47:31.712Z,2.92
2022-10-04T00:50:08.486Z,2.87
2022-10-04T00:52:42.293Z,2.78
2022-10-04T00:55:15.592Z,2.75
2022-10-04T00:57:46.710Z,2.72
2022-10-04T01:00:18.097Z,2.70
2022-10-04T01:02:53.953Z,2.65
2022-10-04T01:05:26.526Z,2.58
2022-10-04T01:08:04.394Z,2.59
2022-10-04T01:10:35.536Z,2.53
2022-10-04T01:13:10.866Z,2.53
2022-10-04T01:15:44.779Z,2.48
2022-10-04T01:18:29.632Z,2.43
2022-10-04T01:21:01.875Z,2.34
2022-10-04T01:23:37.686Z,2.35
2022-10-04T01:26:08.040Z,2.47
2022-10-04T01:28:36.886Z,2.47
2022-10-04T01:31:04.696Z,2.39
2022-10-04T01:33:32.401Z,2.28
2022-10-04T01:36:00.102Z,2.18
2022-10-04T01:38:27.858Z,2.23
2022-10-04T01:41:00.999Z,2.21
2022-10-04T01:43:33.788Z,2.26
2022-10-04T01:46:07.268Z,2.31
2022-10-04T01:48:39.106Z,2.32
2022-10-04T01:51:14.350Z,2.26
2022-10-04T01:53:47.157Z,2.22
2022-10-04T01:56:20.398Z,2.12
2022-10-04T01:58:51.076Z,2.05
2022-10-04T02:01:28.484Z,1.99
2022-10-04T02:04:02.350Z,1.96
2022-10-04T02:06:36.389Z,1.89
2022-10-04T02:09:11.264Z,1.91
2022-10-04T02:11:42.367Z,1.89
2022-10-04T02:14:16.396Z,1.88
2022-10-04T02:16:46.410Z,1.77
2022-10-04T02:19:16.285Z,1.66
2022-10-04T02:21:45.147Z,1.65
2022-10-04T02:24:13.656Z,1.63
2022-10-04T02:26:42.737Z,1.61
2022-10-04T02:29:11.090Z,1.59
2022-10-04T02:31:57.561Z,1.54
2022-10-04T02:34:25.370Z,1.48
2022-10-04T02:36:53.115Z,1.43
2022-10-04T02:39:25.925Z,1.49
2022-10-04T02:41:59.925Z,1.48
2022-10-04T02:44:31.353Z,1.48
2022-10-04T02:47:07.125Z,1.49
2022-10-04T02:49:38.516Z,1.44
2022-10-04T02:52:11.847Z,1.45
2022-10-04T02:54:44.112Z,1.46
2022-10-04T02:57:18.031Z,1.44
2022-10-04T02:59:45.917Z,1.48
2022-10-04T03:02:29.420Z,1.52
2022-10-04T03:05:01.256Z,1.46
2022-10-04T03:07:29.020Z,1.42
2022-10-04T03:09:56.739Z,1.36
2022-10-04T03:12:26.203Z,1.28
2022-10-04T03:14:54.281Z,1.28
2022-10-04T03:17:23.091Z,1.22
2022-10-04T03:19:51.232Z,1.20
2022-10-04T03:22:19.769Z,1.22
2022-10-04T03:24:50.032Z,1.21
2022-10-04T03:27:22.659Z,1.15
2022-10-04T03:29:55.625Z,1.18
2022-10-04T03:32:27.099Z,1.13
2022-10-04T03:34:58.986Z,1.09
2022-10-04T03:37:29.492Z,1.08
2022-10-04T03:39:59.818Z,1.05
2022-10-04T03:42:31.282Z,1.04
2022-10-04T03:45:02.966Z,1.03
2022-10-04T03:47:33.362Z,0.98
2022-10-04T03:50:06.104Z,0.90
2022-10-04T03:52:37.606Z,0.83
2022-10-04T03:55:08.043Z,0.76
2022-10-04T03:57:37.898Z,0.79
2022-10-04T04:00:08.131Z,0.85
2022-10-04T04:02:43.681Z,0.82
2022-10-04T04:05:20.405Z,0.85
2022-10-04T04:07:52.397Z,0.89
2022-10-04T04:10:24.719Z,0.87
2022-10-04T04:12:58.130Z,0.86
2022-10-04T04:15:30.384Z,0.82
2022-10-04T04:18:02.499Z,0.89
2022-10-04T04:20:33.864Z,0.90
2022-10-04T04:23:05.095Z,0.90
2022-10-04T04:25:38.163Z,0.83
2022-10-04T04:28:20.657Z,0.85
2022-10-04T04:30:52.955Z,0.79
2022-10-04T04:33:29.706Z,0.79
2022-10-04T04:36:05.122Z,0.77
2022-10-04T04:38:33.060Z,0.74
2022-10-04T04:41:10.912Z,0.71
2022-10-04T04:43:44.621Z,0.67
2022-10-04T04:46:27.677Z,0.63
2022-10-04T04:49:02.474Z,0.57
2022-10-04T04:51:32.409Z,0.57
2022-10-04T04:54:03.439Z,0.56
2022-10-04T04:56:31.990Z,0.49
2022-10-04T04:59:04.162Z,0.51
2022-10-04T05:01:36.622Z,0.58
2022-10-04T05:04:06.515Z,0.59
2022-10-04T05:06:35.860Z,0.65
2022-10-04T05:09:05.158Z,0.62
2022-10-04T05:11:35.255Z,0.65
2022-10-04T05:14:07.438Z,0.71
2022-10-04T05:16:41.455Z,0.65
2022-10-04T05:19:15.393Z,0.59
2022-10-04T05:21:46.510Z,0.61
2022-10-04T05:24:30.278Z,0.68
2022-10-04T05:27:01.103Z,0.85
2022-10-04T05:29:33.912Z,0.86
2022-10-04T05:32:13.466Z,0.83
2022-10-04T05:34:43.325Z,0.87
2022-10-04T05:37:34.562Z,0.91
2022-10-04T05:40:14.815Z,1.04
2022-10-04T05:42:45.679Z,1.24
2022-10-04T05:45:20.021Z,1.39
2022-10-04T05:47:51.380Z,1.55
2022-10-04T05:50:23.566Z,1.72
2022-10-04T05:52:53.210Z,1.83
2022-10-04T05:55:31.956Z,1.92
2022-10-04T05:58:33.026Z,2.03
2022-10-04T06:01:17.725Z,2.22
2022-10-04T06:04:01.465Z,2.37
2022-10-04T06:06:37.085Z,2.55
2022-10-04T06:09:14.479Z,2.70
2022-10-04T06:11:55.722Z,2.80
2022-10-04T06:14:48.196Z,3.04
2022-10-04T06:17:30.087Z,3.34
2022-10-04T06:20:14.003Z,3.65
2022-10-04T06:22:45.802Z,3.92
2022-10-04T06:25:18.389Z,4.10
2022-10-04T06:27:53.922Z,4.16
2022-10-04T06:30:22.053Z,4.20
2022-10-04T06:33:28.875Z,4.24
2022-10-04T06:36:10.223Z,4.29
2022-10-04T06:39:04.262Z,4.34
2022-10-04T06:41:43.711Z,4.29
2022-10-04T06:44:49.527Z,4.34
2022-10-04T06:47:43.299Z,4.39
2022-10-04T06:50:25.230Z,4.54
2022-10-04T06:53:16.524Z,4.75
2022-10-04T06:56:10.612Z,4.96
2022-10-04T06:59:07.835Z,5.11
2022-10-04T07:01:37.597Z,5.33
2022-10-04T07:04:21.846Z,5.64
2022-10-04T07:07:16.979Z,6.01
2022-10-04T07:09:48.213Z,6.31
2022-10-04T07:12:18.060Z,6.57
2022-10-04T07:14:49.061Z,6.79
2022-10-04T07:17:23.620Z,7.08
2022-10-04T07:19:53.596Z,7.42
2022-10-04T07:22:29.386Z,7.59
2022-10-04T07:25:14.698Z,7.76
2022-10-04T07:28:13.746Z,7.90
2022-10-04T07:30:47.293Z,8.15
2022-10-04T07:33:19.665Z,8.33
2022-10-04T07:35:51.495Z,8.57
2022-10-04T07:38:25.594Z,8.73
2022-10-04T07:41:08.414Z,8.91
2022-10-04T07:43:49.181Z,9.19
2022-10-04T07:46:25.435Z,9.46
2022-10-04T07:48:53.673Z,9.57
2022-10-04T07:51:30.933Z,9.78
2022-10-04T07:54:05.787Z,9.98
2022-10-04T07:56:38.373Z,10.16
2022-10-04T07:59:23.490Z,10.34
2022-10-04T08:02:01.958Z,10.48
2022-10-04T08:04:39.660Z,10.59
2022-10-04T08:07:18.725Z,10.62
2022-10-04T08:09:57.979Z,10.76
2022-10-04T08:12:41.843Z,10.85
2022-10-04T08:15:34.260Z,10.87
2022-10-04T08:18:12.013Z,11.17
2022-10-04T08:20:47.864Z,11.40
2022-10-04T08:23:32.586Z,11.44
2022-10-04T08:26:13.541Z,11.65
2022-10-04T08:29:08.335Z,11.77
2022-10-04T08:31:46.188Z,12.13
2022-10-04T08:34:32.371Z,12.28
2022-10-04T08:37:10.103Z,12.14
2022-10-04T08:39:53.767Z,12.46
2022-10-04T08:43:07.003Z,12.60
2022-10-04T08:46:09.732Z,12.54
2022-10-04T08:49:11.793Z,12.68
2022-10-04T08:52:08.851Z,13.03
2022-10-04T08:55:12.730Z,13.18
2022-10-04T08:58:02.622Z,13.53
2022-10-04T09:00:46.878Z,13.65
2022-10-04T09:03:53.648Z,14.07
2022-10-04T09:06:45.031Z,14.35
2022-10-04T09:09:44.413Z,14.55
2022-10-04T09:12:44.364Z,14.75
2022-10-04T09:15:38.771Z,14.67
2022-10-04T09:18:22.601Z,14.82
2022-10-04T09:20:59.067Z,14.80
2022-10-04T09:23:58.916Z,14.78
2022-10-04T09:26:37.381Z,15.01
2022-10-04T09:29:38.086Z,15.14
2022-10-04T09:32:48.546Z,15.54
2022-10-04T09:35:52.928Z,15.36
2022-10-04T09:39:01.227Z,15.46
2022-10-04T09:41:49.058Z,15.55
2022-10-04T09:44:48.338Z,15.62
2022-10-04T09:47:37.764Z,15.80
2022-10-04T09:50:39.821Z,16.09
2022-10-04T09:53:24.305Z,16.29
2022-10-04T09:56:13.567Z,16.55
2022-10-04T09:59:21.874Z,16.52
2022-10-04T10:02:29.277Z,15.98
2022-10-04T10:05:29.976Z,16.30
2022-10-04T10:08:09.887Z,16.61
2022-10-04T10:11:02.584Z,16.52
2022-10-04T10:13:53.841Z,16.42
2022-10-04T10:16:32.269Z,16.23
2022-10-04T10:19:37.051Z,16.63
2022-10-04T10:22:22.680Z,17.10
2022-10-04T10:25:12.352Z,17.31
2022-10-04T10:27:53.940Z,17.14
2022-10-04T10:30:26.324Z,17.13
2022-10-04T10:33:32.778Z,16.69
2022-10-04T10:36:39.463Z,16.77
2022-10-04T10:39:36.899Z,16.84
2022-10-04T10:42:33.963Z,16.96
2022-10-04T10:45:45.623Z,16.29
2022-10-04T10:48:18.432Z,16.50
2022-10-04T10:51:03.710Z,15.97
2022-10-04T10:54:07.993Z,16.18
2022-10-04T10:56:43.624Z,16.31
2022-10-04T10:59:53.089Z,16.77
2022-10-04T11:02:50.483Z,17.20
2022-10-04T11:05:53.454Z,17.97
2022-10-04T11:08:55.437Z,18.34
2022-10-04T11:11:41.852Z,17.87
2022-10-04T11:14:33.200Z,17.96
2022-10-04T11:17:39.111Z,18.19
2022-10-04T11:20:27.322Z,17.74
2022-10-04T11:23:37.127Z,17.79
2022-10-04T11:26:27.365Z,18.02
2022-10-04T11:28:58.934Z,18.05
2022-10-04T11:32:14.733Z,17.61
2022-10-04T11:35:12.558Z,17.73
2022-10-04T11:37:53.855Z,17.61
2022-10-04T11:40:39.258Z,17.25
2022-10-04T11:43:31.832Z,17.53
2022-10-04T11:46:19.010Z,17.83
2022-10-04T11:49:00.560Z,18.06
2022-10-04T11:52:02.576Z,18.21
2022-10-04T11:54:50.138Z,18.29
2022-10-04T11:57:32.155Z,18.50
2022-10-04T12:00:10.289Z,18.69
2022-10-04T12:02:56.183Z,18.80
2022-10-04T12:05:59.345Z,18.31
2022-10-04T12:08:38.949Z,17.81
2022-10-04T12:11:49.159Z,17.83
2022-10-04T12:14:32.464Z,17.77
2022-10-04T12:17:41.176Z,17.99
2022-10-04T12:20:31.763Z,17.82
2022-10-04T12:23:19.166Z,18.43
2022-10-04T12:26:15.782Z,17.92
2022-10-04T12:29:05.876Z,18.60
2022-10-04T12:31:37.279Z,18.61
2022-10-04T12:34:15.641Z,18.47
2022-10-04T12:37:13.730Z,18.07
2022-10-04T12:39:53.650Z,18.38
2022-10-04T12:42:36.173Z,17.79
2022-10-04T12:45:30.533Z,18.52
2022-10-04T12:48:18.546Z,18.81
2022-10-04T12:51:00.100Z,18.63
2022-10-04T12:53:38.718Z,18.83
2022-10-04T12:56:14.425Z,18.36
2022-10-04T12:58:58.601Z,18.02
2022-10-04T13:01:34.800Z,17.59
2022-10-04T13:04:17.851Z,17.20
2022-10-04T13:07:00.445Z,17.47
2022-10-04T13:09:38.954Z,17.64
2022-10-04T13:12:27.451Z,17.64
2022-10-04T13:15:25.897Z,17.26
2022-10-04T13:18:06.750Z,16.88
2022-10-04T13:20:50.275Z,16.86
2022-10-04T13:23:32.721Z,16.90
2022-10-04T13:26:22.714Z,16.58
2022-10-04T13:29:02.859Z,16.54
2022-10-04T13:31:37.676Z,16.48
2022-10-04T13:34:21.263Z,16.47
2022-10-04T13:37:02.191Z,16.88
2022-10-04T13:39:45.625Z,17.30
2022-10-04T13:42:30.537Z,18.71
2022-10-04T13:45:13.438Z,20.32
2022-10-04T13:48:03.113Z,20.16
2022-10-04T13:50:52.834Z,19.79
2022-10-04T13:53:54.243Z,18.85
2022-10-04T13:56:45.464Z,17.98
2022-10-04T13:59:23.986Z,17.30
2022-10-04T14:02:17.250Z,17.29
2022-10-04T14:05:18.890Z,17.50
2022-10-04T14:08:11.166Z,17.22
2022-10-04T14:11:01.574Z,17.77
2022-10-04T14:14:11.742Z,17.83
2022-10-04T14:17:03.759Z,17.71
2022-10-04T14:20:01.979Z,17.58
2022-10-04T14:23:00.604Z,17.39
2022-10-04T14:26:00.449Z,17.18
2022-10-04T14:29:34.366Z,17.02
2022-10-04T14:32:40.544Z,16.85
2022-10-04T14:35:15.795Z,16.88
2022-10-04T14:38:11.157Z,17.02
2022-10-04T14:41:04.853Z,16.69
2022-10-04T14:44:01.887Z,16.73
2022-10-04T14:46:41.419Z,16.73
2022-10-04T14:49:19.487Z,16.69
2022-10-04T14:52:16.670Z,16.85
2022-10-04T14:54:53.800Z,16.74
2022-10-04T14:57:38.861Z,16.78
2022-10-04T15:00:19.098Z,16.64
2022-10-04T15:03:28.900Z,16.55
2022-10-04T15:06:13.161Z,16.45
2022-10-04T15:09:07.433Z,16.35
2022-10-04T15:12:21.705Z,16.15
2022-10-04T15:15:01.935Z,16.09
2022-10-04T15:17:36.407Z,16.05
2022-10-04T15:20:16.634Z,15.91
2022-10-04T15:22:48.893Z,15.87
2022-10-04T15:25:40.190Z,15.86
2022-10-04T15:28:29.204Z,15.83
2022-10-04T15:31:05.359Z,15.77
2022-10-04T15:33:41.148Z,15.70
2022-10-04T15:36:43.973Z,15.60
2022-10-04T15:39:36.107Z,15.48
2022-10-04T15:42:14.139Z,15.31
2022-10-04T15:44:58.207Z,15.30
2022-10-04T15:47:30.937Z,15.19
2022-10-04T15:50:10.944Z,15.04
2022-10-04T15:53:03.636Z,14.95
2022-10-04T15:55:49.855Z,14.76
2022-10-04T15:58:38.883Z,14.60
2022-10-04T16:01:41.337Z,14.45
2022-10-04T16:04:24.178Z,14.31
2022-10-04T16:06:56.218Z,14.21
2022-10-04T16:09:37.505Z,14.05
2022-10-04T16:12:21.759Z,13.91
2022-10-04T16:14:59.771Z,13.75
2022-10-04T16:17:57.186Z,13.55
2022-10-04T16:20:52.330Z,13.39
2022-10-04T16:23:43.816Z,13.21
2022-10-04T16:26:37.763Z,13.08
2022-10-04T16:29:25.896Z,12.81
2022-10-04T16:32:03.140Z,12.70
2022-10-04T16:34:46.139Z,12.51
2022-10-04T16:37:31.165Z,12.28
2022-10-04T16:40:05.860Z,12.06
2022-10-04T16:42:55.589Z,11.96
2022-10-04T16:45:40.010Z,11.85
2022-10-04T16:48:23.279Z,11.73
2022-10-04T16:51:04.685Z,11.48
2022-10-04T16:53:46.360Z,11.30
2022-10-04T16:56:16.467Z,11.20
2022-10-04T16:58:56.988Z,11.08
2022-10-04T17:02:17.215Z,10.94
2022-10-04T17:05:18.135Z,10.83
2022-10-04T17:08:07.137Z,10.72
2022-10-04T17:10:54.452Z,10.75
2022-10-04T17:13:26.548Z,10.72
2022-10-04T17:16:05.978Z,10.56
2022-10-04T17:18:49.734Z,10.44
2022-10-04T17:21:27.818Z,10.36
2022-10-04T17:24:11.605Z,10.37
2022-10-04T17:26:48.884Z,10.33
2022-10-04T17:29:32.460Z,10.19
2022-10-04T17:32:09.516Z,10.10
2022-10-04T17:34:57.312Z,10.02
2022-10-04T17:37:40.024Z,10.01
2022-10-04T17:40:34.093Z,9.89
2022-10-04T17:43:12.752Z,9.81
2022-10-04T17:46:09.154Z,9.65
2022-10-04T17:49:00.957Z,9.49
2022-10-04T17:51:58.363Z,9.34
2022-10-04T17:54:47.067Z,9.19
2022-10-04T17:57:24.525Z,9.19
2022-10-04T18:00:00.125Z,9.12
2022-10-04T18:02:32.697Z,9.06
2022-10-04T18:05:09.465Z,9.04
2022-10-04T18:07:44.778Z,9.08
2022-10-04T18:10:24.690Z,9.04
2022-10-04T18:13:00.745Z,8.91
2022-10-04T18:15:32.811Z,8.79
2022-10-04T18:18:18.679Z,8.71
2022-10-04T18:21:04.470Z,8.66
2022-10-04T18:23:37.194Z,8.61
2022-10-04T18:26:12.300Z,8.53
2022-10-04T18:28:43.170Z,8.53
2022-10-04T18:31:29.374Z,8.54
2022-10-04T18:34:10.510Z,8.52
2022-10-04T18:36:52.705Z,8.40
2022-10-04T18:39:22.666Z,8.29
2022-10-04T18:42:02.246Z,8.33
2022-10-04T18:44:45.480Z,8.22
2022-10-04T18:47:21.272Z,8.11
2022-10-04T18:49:53.303Z,8.07
2022-10-04T18:52:33.940Z,8.08
2022-10-04T18:55:18.773Z,8.04
2022-10-04T18:58:12.696Z,7.98
2022-10-04T19:01:06.555Z,8.06
2022-10-04T19:03:45.410Z,8.00
2022-10-04T19:06:20.743Z,8.00
2022-10-04T19:08:57.983Z,7.99
2022-10-04T19:11:35.238Z,7.96
2022-10-04T19:14:09.514Z,7.93
2022-10-04T19:16:45.840Z,7.92
2022-10-04T19:19:37.509Z,7.87
2022-10-04T19:22:18.893Z,7.83
2022-10-04T19:25:10.868Z,7.75
2022-10-04T19:27:46.285Z,7.68
2022-10-04T19:30:19.010Z,7.61
2022-10-04T19:33:00.509Z,7.59
2022-10-04T19:35:40.895Z,7.54
2022-10-04T19:38:44.484Z,7.49
2022-10-04T19:41:21.665Z,7.44
2022-10-04T19:43:55.805Z,7.39
2022-10-04T19:46:36.145Z,7.36
2022-10-04T19:49:15.050Z,7.37
2022-10-04T19:51:51.026Z,7.32
2022-10-04T19:54:26.002Z,7.27
2022-10-04T19:56:58.866Z,7.32
2022-10-04T19:59:35.818Z,7.36
2022-10-04T20:02:03.764Z,7.38
2022-10-04T20:04:39.442Z,7.39
2022-10-04T20:07:13.128Z,7.34
2022-10-04T20:09:55.915Z,7.28
2022-10-04T20:12:34.115Z,7.23
2022-10-04T20:15:27.531Z,7.18
2022-10-04T20:17:56.331Z,7.17
2022-10-04T20:20:57.467Z,7.09
2022-10-04T20:23:56.581Z,7.09
2022-10-04T20:27:04.432Z,7.09
2022-10-04T20:30:05.092Z,7.03
2022-10-04T20:32:54.554Z,7.01
2022-10-04T20:36:05.865Z,6.97
2022-10-04T20:38:53.236Z,6.94
2022-10-04T20:42:00.558Z,6.92
2022-10-04T20:44:47.219Z,6.82
2022-10-04T20:47:24.804Z,6.79
2022-10-04T20:49:56.265Z,6.78
2022-10-04T20:52:26.278Z,6.75
2022-10-04T20:54:57.155Z,6.73
2022-10-04T20:57:25.122Z,6.70
2022-10-04T20:59:54.589Z,6.67
2022-10-04T21:02:24.451Z,6.59
2022-10-04T21:04:53.675Z,6.51
2022-10-04T21:07:22.990Z,6.50
2022-10-04T21:09:53.235Z,6.51
2022-10-04T21:12:33.277Z,6.45
2022-10-04T21:15:07.048Z,6.37
2022-10-04T21:17:37.675Z,6.25
2022-10-04T21:20:07.257Z,6.22
2022-10-04T21:22:39.764Z,6.15
2022-10-04T21:25:28.153Z,6.07
2022-10-04T21:28:23.733Z,6.00
2022-10-04T21:30:51.490Z,5.97
2022-10-04T21:33:19.191Z,5.92
2022-10-04T21:35:46.896Z,5.91
2022-10-04T21:38:16.712Z,5.86
2022-10-04T21:40:44.437Z,5.84
2022-10-04T21:43:13.570Z,5.83
2022-10-04T21:45:41.276Z,5.83
2022-10-04T21:48:09.008Z,5.79
2022-10-04T21:50:36.722Z,5.74
2022-10-04T21:53:04.403Z,5.76
2022-10-04T21:55:32.168Z,5.70
2022-10-04T21:57:59.879Z,5.59
2022-10-04T22:00:29.014Z,5.62
2022-10-04T22:02:56.673Z,5.59
2022-10-04T22:05:24.427Z,5.54
2022-10-04T22:07:52.094Z,5.59
2022-10-04T22:10:19.757Z,5.52
2022-10-04T22:12:47.466Z,5.52
2022-10-04T22:15:15.180Z,5.43
2022-10-04T22:17:44.201Z,5.34
2022-10-04T22:20:11.876Z,5.32
2022-10-04T22:22:39.973Z,5.34
2022-10-04T22:25:16.018Z,5.29
2022-10-04T22:27:43.925Z,5.20
2022-10-04T22:30:20.488Z,5.15
2022-10-04T22:32:50.027Z,5.14
2022-10-04T22:35:19.586Z,5.09
2022-10-04T22:37:48.206Z,5.10
2022-10-04T22:40:19.903Z,5.05
2022-10-04T22:42:51.421Z,4.94
2022-10-04T22:45:24.693Z,4.93
2022-10-04T22:47:56.982Z,4.89
2022-10-04T22:50:34.887Z,4.83
2022-10-04T22:53:05.902Z,4.82
2022-10-04T22:55:33.656Z,4.80
2022-10-04T22:58:02.754Z,4.81
2022-10-04T23:05:28.742Z,4.53
2022-10-04T23:07:56.518Z,4.51
2022-10-04T23:10:24.204Z,4.53
2022-10-04T23:12:51.990Z,4.51
2022-10-04T23:15:21.619Z,4.47
2022-10-04T23:17:55.449Z,4.48
2022-10-04T23:20:23.749Z,4.49
2022-10-04T23:22:55.410Z,4.48
2022-10-04T23:25:27.173Z,4.43
2022-10-04T23:27:57.790Z,4.43
2022-10-04T23:30:26.065Z,4.39
2022-10-04T23:32:58.484Z,4.41
2022-10-04T23:35:31.114Z,4.41
2022-10-04T23:38:03.567Z,4.39
2022-10-04T23:40:31.221Z,4.35
2022-10-04T23:43:06.621Z,4.33
2022-10-04T23:45:35.323Z,4.32
2022-10-04T23:48:03.052Z,4.28
2022-10-04T23:50:33.809Z,4.24
2022-10-04T23:53:07.406Z,4.26
2022-10-04T23:55:37.387Z,4.25
2022-10-04T23:58:14.005Z,4.19
